TimeEDT,TemperatureF,Dew PointF,Humidity,Sea Level PressureIn,VisibilityMPH,Wind Direction,Wind SpeedMPH,Gust SpeedMPH,PrecipitationIn,Events,Conditions,WindDirDegrees,DateUTC
12:54 AM,28.0,21.9,78,30.32,10.0,Calm,Calm,-,N/A,,Clear,0,2013-03-10 05:54:00
1:54 AM,26.1,21.0,81,30.32,10.0,Calm,Calm,-,N/A,,Clear,0,2013-03-10 06:54:00
3:34 AM,25.0,21.9,88,30.32,10.0,Calm,Calm,-,N/A,,Scattered Clouds,0,2013-03-10 07:34:00
3:42 AM,28.0,23.0,81,30.32,10.0,West,4.6,-,N/A,,Mostly Cloudy,280,2013-03-10 07:42:00
3:54 AM,28.0,24.1,85,30.32,10.0,West,3.5,-,N/A,,Mostly Cloudy,280,2013-03-10 07:54:00
4:01 AM,28.9,25.0,85,30.32,1.5,Calm,Calm,-,N/A,,Mostly Cloudy,0,2013-03-10 08:01:00
4:03 AM,28.9,25.0,85,30.32,0.8,Calm,Calm,-,N/A,,Mist,0,2013-03-10 08:03:00
4:12 AM,24.1,21.9,91,30.32,0.2,Calm,Calm,-,N/A,Fog,Light Freezing Fog,0,2013-03-10 08:12:00
4:54 AM,25.0,21.9,88,30.33,0.2,Calm,Calm,-,N/A,Fog,Light Freezing Fog,0,2013-03-10 08:54:00
5:12 AM,25.0,21.9,88,30.33,0.2,Calm,Calm,-,N/A,Fog,Light Freezing Fog,0,2013-03-10 09:12:00
5:26 AM,26.1,23.0,88,30.33,0.2,Calm,Calm,-,N/A,Fog,Light Freezing Fog,0,2013-03-10 09:26:00
5:54 AM,27.0,25.0,92,30.34,0.2,NW,3.5,-,N/A,Fog,Light Freezing Fog,310,2013-03-10 09:54:00
6:12 AM,27.0,25.0,92,30.34,0.5,NNW,3.5,-,N/A,Fog,Light Freezing Fog,330,2013-03-10 10:12:00
6:21 AM,26.1,25.0,96,30.35,1.5,NW,3.5,-,N/A,,Mostly Cloudy,320,2013-03-10 10:21:00
6:24 AM,26.1,25.0,96,30.35,3.0,NW,3.5,-,N/A,,Mostly Cloudy,320,2013-03-10 10:24:00
6:34 AM,26.1,25.0,96,30.35,8.0,Calm,Calm,-,N/A,,Scattered Clouds,0,2013-03-10 10:34:00
6:55 AM,25.0,24.1,96,30.35,2.0,Calm,Calm,-,N/A,,Clear,0,2013-03-10 10:55:00
7:54 AM,26.1,25.0,96,30.37,2.0,Calm,Calm,-,N/A,,Clear,0,2013-03-10 11:54:00
8:01 AM,27.0,27.0,100,30.36,10.0,Calm,Calm,-,N/A,,Clear,0,2013-03-10 12:01:00
8:54 AM,35.1,33.1,92,30.37,10.0,ENE,5.8,-,N/A,,Clear,60,2013-03-10 12:54:00
9:42 AM,39.0,36.0,89,30.37,10.0,East,10.4,-,N/A,,Partly Cloudy,80,2013-03-10 13:42:00
9:54 AM,39.9,36.0,86,30.38,10.0,East,9.2,-,N/A,,Mostly Cloudy,80,2013-03-10 13:54:00
10:18 AM,41.0,35.1,79,30.38,10.0,East,8.1,-,N/A,,Scattered Clouds,90,2013-03-10 14:18:00
10:54 AM,43.0,35.1,74,30.39,10.0,East,9.2,-,N/A,,Clear,100,2013-03-10 14:54:00
11:54 AM,43.0,33.1,68,30.38,10.0,East,11.5,-,N/A,,Clear,90,2013-03-10 15:54:00
12:54 PM,45.0,34.0,65,30.38,10.0,East,9.2,-,N/A,,Clear,90,2013-03-10 16:54:00
1:54 PM,46.0,34.0,63,30.36,10.0,East,9.2,-,N/A,,Clear,100,2013-03-10 17:54:00
2:54 PM,44.1,34.0,68,30.35,10.0,SE,8.1,-,N/A,,Clear,140,2013-03-10 18:54:00
3:54 PM,44.1,34.0,68,30.35,10.0,East,6.9,-,N/A,,Clear,100,2013-03-10 19:54:00
4:54 PM,43.0,33.1,68,30.33,10.0,East,9.2,-,N/A,,Clear,100,2013-03-10 20:54:00
5:54 PM,41.0,33.1,73,30.34,10.0,ESE,9.2,-,N/A,,Clear,110,2013-03-10 21:54:00
6:54 PM,37.9,33.1,83,30.34,10.0,ESE,6.9,-,N/A,,Clear,120,2013-03-10 22:54:00
7:54 PM,35.1,30.9,85,30.34,10.0,ESE,5.8,-,N/A,,Clear,110,2013-03-10 23:54:00
8:54 PM,35.1,32.0,89,30.34,10.0,ESE,5.8,-,N/A,,Clear,120,2013-03-11 00:54:00
9:54 PM,35.1,30.9,85,30.33,10.0,East,3.5,-,N/A,,Clear,80,2013-03-11 01:54:00
10:54 PM,37.9,35.1,89,30.33,10.0,SSE,4.6,-,N/A,,Clear,150,2013-03-11 02:54:00
11:54 PM,35.1,33.1,92,30.32,10.0,SE,3.5,-,N/A,,Clear,130,2013-03-11 03:54:00
12:42 AM,30.9,28.9,92,30.32,0.8,Calm,Calm,-,N/A,,Mist,0,2013-03-11 04:42:00
12:56 AM,32.0,30.0,92,30.31,1.2,SE,3.5,-,N/A,,Scattered Clouds,140,2013-03-11 04:56:00
12:58 AM,33.1,30.0,89,30.31,2.5,SE,3.5,-,N/A,,Scattered Clouds,140,2013-03-11 04:58:00